sensor_id;sensor_type;location;lat;lon;timestamp;pressure;altitude;pressure_sealevel;temperature;humidity
41264;BME280;26998;48.714;9.414;2023-04-20T00:01:29;99579.81;;;1.54;100.00
41264;BME280;26998;48.714;9.414;2023-04-20T00:03:55;99573.72;;;1.43;100.00
41264;BME280;26998;48.714;9.414;2023-04-20T00:06:25;99576.84;;;1.36;100.00
41264;BME280;26998;48.714;9.414;2023-04-20T00:08:51;99581.28;;;1.36;100.00
41264;BME280;26998;48.714;9.414;2023-04-20T00:11:20;99581.16;;;1.37;100.00
41264;BME280;26998;48.714;9.414;2023-04-20T00:13:47;99579.97;;;1.30;100.00
41264;BME280;26998;48.714;9.414;2023-04-20T00:16:14;99579.59;;;1.24;100.00
41264;BME280;26998;48.714;9.414;2023-04-20T00:18:44;99574.47;;;1.11;100.00
41264;BME280;26998;48.714;9.414;2023-04-20T00:21:12;99582.75;;;1.06;100.00
41264;BME280;26998;48.714;9.414;2023-04-20T00:23:39;99591.47;;;1.07;100.00
41264;BME280;26998;48.714;9.414;2023-04-20T00:26:05;99599.00;;;1.00;100.00
41264;BME280;26998;48.714;9.414;2023-04-20T00:28:32;99605.56;;;0.95;100.00
41264;BME280;26998;48.714;9.414;2023-04-20T00:30:59;99601.28;;;0.94;100.00
41264;BME280;26998;48.714;9.414;2023-04-20T00:33:25;99605.56;;;0.95;100.00
41264;BME280;26998;48.714;9.414;2023-04-20T00:35:52;99603.06;;;0.93;100.00
41264;BME280;26998;48.714;9.414;2023-04-20T00:38:18;99606.31;;;0.97;100.00
41264;BME280;26998;48.714;9.414;2023-04-20T00:40:44;99607.00;;;0.99;100.00
41264;BME280;26998;48.714;9.414;2023-04-20T00:43:12;99593.59;;;1.02;100.00
41264;BME280;26998;48.714;9.414;2023-04-20T00:45:39;99583.81;;;1.04;100.00
41264;BME280;26998;48.714;9.414;2023-04-20T00:48:06;99582.75;;;1.06;100.00
41264;BME280;26998;48.714;9.414;2023-04-20T00:50:33;99585.00;;;1.11;100.00
41264;BME280;26998;48.714;9.414;2023-04-20T00:53:01;99583.44;;;1.08;100.00
41264;BME280;26998;48.714;9.414;2023-04-20T00:55:29;99577.25;;;1.09;100.00
41264;BME280;26998;48.714;9.414;2023-04-20T00:57:56;99582.84;;;1.16;100.00
41264;BME280;26998;48.714;9.414;2023-04-20T01:00:39;99565.13;;;0.96;100.00
41264;BME280;26998;48.714;9.414;2023-04-20T01:03:06;99567.31;;;0.90;100.00
41264;BME280;26998;48.714;9.414;2023-04-20T01:05:33;99564.66;;;0.90;100.00
41264;BME280;26998;48.714;9.414;2023-04-20T01:08:01;99564.78;;;0.89;100.00
41264;BME280;26998;48.714;9.414;2023-04-20T01:10:28;99561.91;;;0.92;100.00
41264;BME280;26998;48.714;9.414;2023-04-20T01:12:55;99567.75;;;0.96;100.00
41264;BME280;26998;48.714;9.414;2023-04-20T01:15:22;99551.38;;;0.92;100.00
41264;BME280;26998;48.714;9.414;2023-04-20T01:17:49;99554.84;;;0.92;100.00
41264;BME280;26998;48.714;9.414;2023-04-20T01:20:16;99536.19;;;0.84;100.00
41264;BME280;26998;48.714;9.414;2023-04-20T01:22:44;99532.13;;;0.80;100.00
41264;BME280;26998;48.714;9.414;2023-04-20T01:25:11;99537.88;;;0.85;100.00
41264;BME280;26998;48.714;9.414;2023-04-20T01:27:37;99525.19;;;0.79;100.00
41264;BME280;26998;48.714;9.414;2023-04-20T01:30:05;99520.28;;;0.86;100.00
41264;BME280;26998;48.714;9.414;2023-04-20T01:32:33;99521.47;;;0.82;100.00
41264;BME280;26998;48.714;9.414;2023-04-20T01:35:01;99510.38;;;0.78;100.00
41264;BME280;26998;48.714;9.414;2023-04-20T01:37:28;99501.25;;;0.71;100.00
41264;BME280;26998;48.714;9.414;2023-04-20T01:39:54;99500.78;;;0.66;100.00
41264;BME280;26998;48.714;9.414;2023-04-20T01:42:21;99505.91;;;0.67;100.00
41264;BME280;26998;48.714;9.414;2023-04-20T01:44:48;99499.97;;;0.65;100.00
41264;BME280;26998;48.714;9.414;2023-04-20T01:47:15;99518.47;;;0.64;100.00
41264;BME280;26998;48.714;9.414;2023-04-20T01:49:41;99514.66;;;0.57;100.00
41264;BME280;26998;48.714;9.414;2023-04-20T01:52:08;99528.16;;;0.41;100.00
41264;BME280;26998;48.714;9.414;2023-04-20T01:54:35;99525.00;;;0.36;100.00
41264;BME280;26998;48.714;9.414;2023-04-20T01:57:01;99522.97;;;0.28;100.00
41264;BME280;26998;48.714;9.414;2023-04-20T01:59:28;99522.34;;;0.25;100.00
41264;BME280;26998;48.714;9.414;2023-04-20T02:01:55;99528.06;;;0.18;100.00
41264;BME280;26998;48.714;9.414;2023-04-20T02:04:21;99064.50;;;0.19;100.00
41264;BME280;26998;48.714;9.414;2023-04-20T02:06:48;99068.78;;;0.20;100.00
41264;BME280;26998;48.714;9.414;2023-04-20T02:09:14;99061.47;;;0.24;100.00
41264;BME280;26998;48.714;9.414;2023-04-20T02:11:41;99056.09;;;0.26;100.00
41264;BME280;26998;48.714;9.414;2023-04-20T02:14:07;99059.31;;;0.29;100.00
41264;BME280;26998;48.714;9.414;2023-04-20T02:16:35;99056.69;;;0.29;100.00
41264;BME280;26998;48.714;9.414;2023-04-20T02:19:02;99049.50;;;0.31;100.00
41264;BME280;26998;48.714;9.414;2023-04-20T02:21:28;99048.41;;;0.34;100.00
41264;BME280;26998;48.714;9.414;2023-04-20T02:23:55;99058.91;;;0.34;100.00
41264;BME280;26998;48.714;9.414;2023-04-20T02:26:21;99054.88;;;0.30;100.00
41264;BME280;26998;48.714;9.414;2023-04-20T02:28:50;99051.03;;;0.13;100.00
41264;BME280;26998;48.714;9.414;2023-04-20T02:31:17;99042.69;;;0.08;100.00
41264;BME280;26998;48.714;9.414;2023-04-20T02:33:44;99039.34;;;0.06;100.00
41264;BME280;26998;48.714;9.414;2023-04-20T02:36:10;99027.03;;;0.06;100.00
41264;BME280;26998;48.714;9.414;2023-04-20T02:38:37;99020.59;;;0.10;100.00
41264;BME280;26998;48.714;9.414;2023-04-20T02:41:03;99008.38;;;0.09;100.00
41264;BME280;26998;48.714;9.414;2023-04-20T02:43:30;99003.53;;;0.05;100.00
41264;BME280;26998;48.714;9.414;2023-04-20T02:45:56;99001.97;;;0.02;100.00
41264;BME280;26998;48.714;9.414;2023-04-20T02:48:23;98995.38;;;0.08;100.00
41264;BME280;26998;48.714;9.414;2023-04-20T02:50:49;98997.03;;;0.09;100.00
41264;BME280;26998;48.714;9.414;2023-04-20T02:53:15;99006.63;;;0.10;100.00
41264;BME280;26998;48.714;9.414;2023-04-20T02:55:42;98988.47;;;0.07;100.00
41264;BME280;26998;48.714;9.414;2023-04-20T02:58:09;98982.50;;;0.05;100.00
41264;BME280;26998;48.714;9.414;2023-04-20T03:00:35;98974.72;;;0.03;100.00
41264;BME280;26998;48.714;9.414;2023-04-20T03:03:02;98977.75;;;-0.02;100.00
41264;BME280;26998;48.714;9.414;2023-04-20T03:05:29;98971.41;;;0.01;100.00
41264;BME280;26998;48.714;9.414;2023-04-20T03:07:55;98974.31;;;-0.02;100.00
41264;BME280;26998;48.714;9.414;2023-04-20T03:10:22;98965.84;;;-0.06;100.00
41264;BME280;26998;48.714;9.414;2023-04-20T03:12:48;98968.47;;;-0.06;100.00
41264;BME280;26998;48.714;9.414;2023-04-20T03:15:15;98965.84;;;-0.06;100.00
41264;BME280;26998;48.714;9.414;2023-04-20T03:17:41;98955.44;;;-0.07;100.00
41264;BME280;26998;48.714;9.414;2023-04-20T03:20:08;98964.31;;;-0.08;100.00
41264;BME280;26998;48.714;9.414;2023-04-20T03:22:34;98951.41;;;-0.11;100.00
41264;BME280;26998;48.714;9.414;2023-04-20T03:25:01;98954.31;;;-0.14;100.00
41264;BME280;26998;48.714;9.414;2023-04-20T03:27:27;98948.47;;;-0.18;100.00
41264;BME280;26998;48.714;9.414;2023-04-20T03:29:54;98947.66;;;-0.18;100.00
41264;BME280;26998;48.714;9.414;2023-04-20T03:32:20;98935.97;;;-0.26;100.00
41264;BME280;26998;48.714;9.414;2023-04-20T03:34:47;98945.38;;;-0.23;100.00
41264;BME280;26998;48.714;9.414;2023-04-20T03:37:13;98936.44;;;-0.20;100.00
41264;BME280;26998;48.714;9.414;2023-04-20T03:39:40;98932.25;;;-0.23;100.00
41264;BME280;26998;48.714;9.414;2023-04-20T03:42:06;98943.41;;;-0.31;100.00
41264;BME280;26998;48.714;9.414;2023-04-20T03:44:33;98925.13;;;-0.32;100.00
41264;BME280;26998;48.714;9.414;2023-04-20T03:46:59;98932.59;;;-0.37;100.00
41264;BME280;26998;48.714;9.414;2023-04-20T03:49:28;98920.53;;;-0.40;100.00
41264;BME280;26998;48.714;9.414;2023-04-20T03:51:55;98913.03;;;-0.44;100.00
41264;BME280;26998;48.714;9.414;2023-04-20T03:54:21;98913.50;;;-0.39;100.00
41264;BME280;26998;48.714;9.414;2023-04-20T03:56:48;98908.59;;;-0.44;100.00
41264;BME280;26998;48.714;9.414;2023-04-20T03:59:15;98908.28;;;-0.51;100.00
41264;BME280;26998;48.714;9.414;2023-04-20T04:01:42;98903.66;;;-0.58;100.00
41264;BME280;26998;48.714;9.414;2023-04-20T04:04:08;98894.00;;;-0.58;100.00
41264;BME280;26998;48.714;9.414;2023-04-20T04:06:35;98895.16;;;-0.51;100.00
41264;BME280;26998;48.714;9.414;2023-04-20T04:09:02;98892.41;;;-0.49;100.00
41264;BME280;26998;48.714;9.414;2023-04-20T04:11:28;98897.59;;;-0.59;100.00
41264;BME280;26998;48.714;9.414;2023-04-20T04:13:56;98899.34;;;-0.59;100.00
41264;BME280;26998;48.714;9.414;2023-04-20T04:16:23;98898.28;;;-0.78;100.00
41264;BME280;26998;48.714;9.414;2023-04-20T04:18:50;98903.38;;;-0.76;100.00
41264;BME280;26998;48.714;9.414;2023-04-20T04:21:17;98898.13;;;-0.76;100.00
41264;BME280;26998;48.714;9.414;2023-04-20T04:23:43;98902.16;;;-0.72;100.00
41264;BME280;26998;48.714;9.414;2023-04-20T04:26:09;98905.19;;;-0.77;100.00
41264;BME280;26998;48.714;9.414;2023-04-20T04:28:36;98902.66;;;-0.78;100.00
41264;BME280;26998;48.714;9.414;2023-04-20T04:31:02;98891.91;;;-0.75;100.00
41264;BME280;26998;48.714;9.414;2023-04-20T04:33:29;98897.16;;;-0.75;100.00
41264;BME280;26998;48.714;9.414;2023-04-20T04:35:55;98890.72;;;-0.71;100.00
41264;BME280;26998;48.714;9.414;2023-04-20T04:38:22;98886.50;;;-0.62;100.00
41264;BME280;26998;48.714;9.414;2023-04-20T04:40:48;98887.09;;;-0.59;100.00
41264;BME280;26998;48.714;9.414;2023-04-20T04:43:15;98895.41;;;-0.54;100.00
41264;BME280;26998;48.714;9.414;2023-04-20T04:45:41;98896.94;;;-0.51;100.00
41264;BME280;26998;48.714;9.414;2023-04-20T04:48:08;98896.94;;;-0.51;100.00
41264;BME280;26998;48.714;9.414;2023-04-20T04:50:34;98897.28;;;-0.44;100.00
41264;BME280;26998;48.714;9.414;2023-04-20T04:53:01;98890.69;;;-0.39;100.00
41264;BME280;26998;48.714;9.414;2023-04-20T04:55:27;98894.38;;;-0.41;100.00
41264;BME280;26998;48.714;9.414;2023-04-20T04:57:54;98896.97;;;-0.30;100.00
41264;BME280;26998;48.714;9.414;2023-04-20T05:00:21;98900.88;;;-0.25;100.00
41264;BME280;26998;48.714;9.414;2023-04-20T05:02:48;98898.31;;;-0.15;100.00
41264;BME280;26998;48.714;9.414;2023-04-20T05:05:14;98913.31;;;-0.06;100.00
41264;BME280;26998;48.714;9.414;2023-04-20T05:07:40;98919.91;;;0.10;100.00
41264;BME280;26998;48.714;9.414;2023-04-20T05:10:07;98929.22;;;0.23;100.00
41264;BME280;26998;48.714;9.414;2023-04-20T05:12:34;98927.34;;;0.35;100.00
41264;BME280;26998;48.714;9.414;2023-04-20T05:15:01;98931.25;;;0.41;100.00
41264;BME280;26998;48.714;9.414;2023-04-20T05:17:27;98945.44;;;0.29;100.00
41264;BME280;26998;48.714;9.414;2023-04-20T05:19:54;98965.16;;;0.44;100.00
41264;BME280;26998;48.714;9.414;2023-04-20T05:22:20;98977.81;;;0.50;100.00
41264;BME280;26998;48.714;9.414;2023-04-20T05:24:47;98979.03;;;0.56;100.00
41264;BME280;26998;48.714;9.414;2023-04-20T05:27:13;98993.34;;;0.63;100.00
41264;BME280;26998;48.714;9.414;2023-04-20T05:29:41;98997.78;;;0.62;100.00
41264;BME280;26998;48.714;9.414;2023-04-20T05:32:07;98995.63;;;0.77;100.00
41264;BME280;26998;48.714;9.414;2023-04-20T05:34:34;99002.03;;;0.84;100.00
41264;BME280;26998;48.714;9.414;2023-04-20T05:37:03;99004.16;;;1.00;100.00
41264;BME280;26998;48.714;9.414;2023-04-20T05:39:29;99006.94;;;1.08;100.00
41264;BME280;26998;48.714;9.414;2023-04-20T05:41:56;99014.31;;;1.14;100.00
41264;BME280;26998;48.714;9.414;2023-04-20T05:44:22;99022.22;;;1.24;100.00
41264;BME280;26998;48.714;9.414;2023-04-20T05:46:49;99028.22;;;1.26;100.00
41264;BME280;26998;48.714;9.414;2023-04-20T05:49:15;99026.84;;;1.42;100.00
41264;BME280;26998;48.714;9.414;2023-04-20T05:51:43;99030.34;;;1.71;100.00
41264;BME280;26998;48.714;9.414;2023-04-20T05:54:09;99032.59;;;1.76;100.00
41264;BME280;26998;48.714;9.414;2023-04-20T05:56:36;99022.03;;;2.05;100.00
41264;BME280;26998;48.714;9.414;2023-04-20T05:59:03;99015.13;;;2.04;100.00
41264;BME280;26998;48.714;9.414;2023-04-20T06:01:30;99004.16;;;1.99;100.00
41264;BME280;26998;48.714;9.414;2023-04-20T06:03:56;99001.22;;;2.02;100.00
41264;BME280;26998;48.714;9.414;2023-04-20T06:06:23;98997.38;;;2.06;100.00
41264;BME280;26998;48.714;9.414;2023-04-20T06:08:49;98987.91;;;2.13;100.00
41264;BME280;26998;48.714;9.414;2023-04-20T06:11:16;98992.66;;;2.00;100.00
41264;BME280;26998;48.714;9.414;2023-04-20T06:13:42;98999.84;;;2.07;100.00
41264;BME280;26998;48.714;9.414;2023-04-20T06:16:09;99007.91;;;2.72;100.00
41264;BME280;26998;48.714;9.414;2023-04-20T06:18:35;98985.13;;;2.99;100.00
41264;BME280;26998;48.714;9.414;2023-04-20T06:21:03;98951.06;;;3.23;100.00
41264;BME280;26998;48.714;9.414;2023-04-20T06:23:29;98934.25;;;3.78;100.00
41264;BME280;26998;48.714;9.414;2023-04-20T06:25:56;98887.09;;;4.44;100.00
41264;BME280;26998;48.714;9.414;2023-04-20T06:28:22;98842.97;;;4.18;100.00
41264;BME280;26998;48.714;9.414;2023-04-20T06:30:49;98848.09;;;4.20;100.00
41264;BME280;26998;48.714;9.414;2023-04-20T06:33:16;98836.00;;;5.10;100.00
41264;BME280;26998;48.714;9.414;2023-04-20T06:35:42;98782.25;;;6.14;100.00
41264;BME280;26998;48.714;9.414;2023-04-20T06:38:09;98712.09;;;5.61;100.00
41264;BME280;26998;48.714;9.414;2023-04-20T06:40:35;98754.84;;;5.42;100.00
41264;BME280;26998;48.714;9.414;2023-04-20T06:43:02;98739.44;;;5.29;100.00
41264;BME280;26998;48.714;9.414;2023-04-20T06:45:29;98719.59;;;5.08;100.00
41264;BME280;26998;48.714;9.414;2023-04-20T06:47:59;98748.53;;;4.69;100.00
41264;BME280;26998;48.714;9.414;2023-04-20T06:50:25;98777.59;;;4.45;100.00
41264;BME280;26998;48.714;9.414;2023-04-20T06:52:52;98817.38;;;4.27;100.00
41264;BME280;26998;48.714;9.414;2023-04-20T06:55:19;98851.94;;;4.25;100.00
41264;BME280;26998;48.714;9.414;2023-04-20T06:57:47;98897.25;;;4.04;100.00
41264;BME280;26998;48.714;9.414;2023-04-20T07:00:14;98911.03;;;4.42;100.00
41264;BME280;26998;48.714;9.414;2023-04-20T07:02:42;98863.75;;;4.81;100.00
41264;BME280;26998;48.714;9.414;2023-04-20T07:05:09;98831.19;;;5.14;100.00
41264;BME280;26998;48.714;9.414;2023-04-20T07:07:36;98799.41;;;5.14;100.00
41264;BME280;26998;48.714;9.414;2023-04-20T07:10:03;98773.06;;;5.45;100.00
41264;BME280;26998;48.714;9.414;2023-04-20T07:12:29;98736.94;;;5.52;100.00
41264;BME280;26998;48.714;9.414;2023-04-20T07:14:56;98725.00;;;5.48;100.00
41264;BME280;26998;48.714;9.414;2023-04-20T07:17:26;98732.44;;;5.61;100.00
41264;BME280;26998;48.714;9.414;2023-04-20T07:19:53;98726.50;;;5.50;100.00
41264;BME280;26998;48.714;9.414;2023-04-20T07:22:21;98744.25;;;5.50;100.00
41264;BME280;26998;48.714;9.414;2023-04-20T07:24:47;98787.47;;;4.93;100.00
41264;BME280;26998;48.714;9.414;2023-04-20T07:27:14;98810.25;;;4.70;100.00
41264;BME280;26998;48.714;9.414;2023-04-20T07:29:44;98834.38;;;4.58;100.00
41264;BME280;26998;48.714;9.414;2023-04-20T07:32:11;98847.25;;;4.53;100.00
41264;BME280;26998;48.714;9.414;2023-04-20T07:34:38;98855.00;;;4.47;100.00
41264;BME280;26998;48.714;9.414;2023-04-20T07:37:04;98855.06;;;4.55;100.00
41264;BME280;26998;48.714;9.414;2023-04-20T07:39:31;98835.22;;;4.67;100.00
41264;BME280;26998;48.714;9.414;2023-04-20T07:42:01;98828.47;;;4.73;100.00
41264;BME280;26998;48.714;9.414;2023-04-20T07:44:31;98840.59;;;4.92;100.00
41264;BME280;26998;48.714;9.414;2023-04-20T07:46:57;98819.28;;;5.18;100.00
41264;BME280;26998;48.714;9.414;2023-04-20T07:49:24;98776.56;;;5.37;100.00
41264;BME280;26998;48.714;9.414;2023-04-20T07:51:53;98751.66;;;5.63;100.00
41264;BME280;26998;48.714;9.414;2023-04-20T07:54:34;98745.25;;;5.32;100.00
41264;BME280;26998;48.714;9.414;2023-04-20T07:57:01;98763.31;;;5.21;100.00
41264;BME280;26998;48.714;9.414;2023-04-20T07:59:28;98776.56;;;5.45;100.00
41264;BME280;26998;48.714;9.414;2023-04-20T08:01:59;98770.44;;;5.28;100.00
41264;BME280;26998;48.714;9.414;2023-04-20T08:04:26;98774.56;;;5.23;100.00
41264;BME280;26998;48.714;9.414;2023-04-20T08:06:53;98780.69;;;5.31;100.00
41264;BME280;26998;48.714;9.414;2023-04-20T08:09:20;98721.53;;;5.55;100.00
41264;BME280;26998;48.714;9.414;2023-04-20T08:11:47;98740.72;;;5.66;100.00
41264;BME280;26998;48.714;9.414;2023-04-20T08:14:14;98775.22;;;5.41;100.00
41264;BME280;26998;48.714;9.414;2023-04-20T08:16:41;98753.78;;;5.84;100.00
41264;BME280;26998;48.714;9.414;2023-04-20T08:19:08;98732.28;;;5.70;100.00
41264;BME280;26998;48.714;9.414;2023-04-20T08:21:38;98752.19;;;5.50;100.00
41264;BME280;26998;48.714;9.414;2023-04-20T08:24:06;98818.47;;;5.33;100.00
41264;BME280;26998;48.714;9.414;2023-04-20T08:26:33;98858.50;;;5.06;100.00
41264;BME280;26998;48.714;9.414;2023-04-20T08:29:01;98862.31;;;5.20;100.00
41264;BME280;26998;48.714;9.414;2023-04-20T08:31:28;98888.53;;;5.31;100.00
41264;BME280;26998;48.714;9.414;2023-04-20T08:33:56;98884.16;;;5.14;100.00
41264;BME280;26998;48.714;9.414;2023-04-20T08:36:23;98897.16;;;5.33;100.00
41264;BME280;26998;48.714;9.414;2023-04-20T08:38:55;98887.69;;;5.30;100.00
41264;BME280;26998;48.714;9.414;2023-04-20T08:41:24;98896.91;;;5.10;100.00
41264;BME280;26998;48.714;9.414;2023-04-20T08:43:51;98922.28;;;5.21;100.00
41264;BME280;26998;48.714;9.414;2023-04-20T08:46:19;98935.03;;;5.17;100.00
41264;BME280;26998;48.714;9.414;2023-04-20T08:48:46;98935.50;;;5.13;100.00
41264;BME280;26998;48.714;9.414;2023-04-20T08:51:15;98935.88;;;5.18;100.00
41264;BME280;26998;48.714;9.414;2023-04-20T08:53:41;98928.25;;;5.15;100.00
41264;BME280;26998;48.714;9.414;2023-04-20T08:56:08;98938.38;;;5.27;100.00
41264;BME280;26998;48.714;9.414;2023-04-20T08:58:35;98940.53;;;5.24;100.00
41264;BME280;26998;48.714;9.414;2023-04-20T09:01:01;98945.66;;;5.25;100.00
41264;BME280;26998;48.714;9.414;2023-04-20T09:03:54;98930.25;;;5.21;100.00
41264;BME280;26998;48.714;9.414;2023-04-20T09:06:20;98906.09;;;5.56;100.00
41264;BME280;26998;48.714;9.414;2023-04-20T09:08:48;98870.97;;;5.63;100.00
41264;BME280;26998;48.714;9.414;2023-04-20T09:11:26;98846.09;;;5.64;100.00
41264;BME280;26998;48.714;9.414;2023-04-20T09:16:24;98811.25;;;6.16;100.00
41264;BME280;26998;48.714;9.414;2023-04-20T09:18:53;98772.94;;;6.50;100.00
41264;BME280;26998;48.714;9.414;2023-04-20T09:21:20;98722.84;;;6.46;100.00
41264;BME280;26998;48.714;9.414;2023-04-20T09:24:04;98703.09;;;6.18;100.00
41264;BME280;26998;48.714;9.414;2023-04-20T09:26:32;98735.50;;;6.05;100.00
41264;BME280;26998;48.714;9.414;2023-04-20T09:29:02;98737.06;;;6.54;100.00
41264;BME280;26998;48.714;9.414;2023-04-20T09:31:28;98713.84;;;6.24;100.00
41264;BME280;26998;48.714;9.414;2023-04-20T09:34:02;98749.94;;;6.03;100.00
41264;BME280;26998;48.714;9.414;2023-04-20T09:36:42;98752.16;;;6.22;100.00
41264;BME280;26998;48.714;9.414;2023-04-20T09:39:17;98763.59;;;6.31;100.00
41264;BME280;26998;48.714;9.414;2023-04-20T09:41:44;98767.47;;;6.51;100.00
41264;BME280;26998;48.714;9.414;2023-04-20T09:44:12;98751.56;;;6.74;100.00
41264;BME280;26998;48.714;9.414;2023-04-20T09:46:44;98759.69;;;6.50;100.00
41264;BME280;26998;48.714;9.414;2023-04-20T09:49:12;98793.25;;;6.34;100.00
41264;BME280;26998;48.714;9.414;2023-04-20T09:51:42;98824.78;;;6.29;100.00
41264;BME280;26998;48.714;9.414;2023-04-20T09:54:09;98853.94;;;6.45;100.00
41264;BME280;26998;48.714;9.414;2023-04-20T09:56:37;98889.38;;;6.69;100.00
41264;BME280;26998;48.714;9.414;2023-04-20T09:59:06;98909.38;;;6.32;100.00
41264;BME280;26998;48.714;9.414;2023-04-20T10:01:33;98905.00;;;6.64;100.00
41264;BME280;26998;48.714;9.414;2023-04-20T10:04:02;98950.38;;;6.13;100.00
41264;BME280;26998;48.714;9.414;2023-04-20T10:06:31;98969.94;;;6.45;100.00
41264;BME280;26998;48.714;9.414;2023-04-20T10:09:00;98979.38;;;6.47;100.00
41264;BME280;26998;48.714;9.414;2023-04-20T10:11:36;98968.59;;;6.41;100.00
41264;BME280;26998;48.714;9.414;2023-04-20T10:14:23;99006.13;;;6.30;100.00
41264;BME280;26998;48.714;9.414;2023-04-20T10:17:03;99037.28;;;6.44;100.00
41264;BME280;26998;48.714;9.414;2023-04-20T10:19:44;99029.34;;;6.19;100.00
41264;BME280;26998;48.714;9.414;2023-04-20T10:22:12;99022.19;;;6.53;100.00
41264;BME280;26998;48.714;9.414;2023-04-20T10:24:50;99008.88;;;6.85;100.00
41264;BME280;26998;48.714;9.414;2023-04-20T10:27:17;98997.00;;;7.04;100.00
41264;BME280;26998;48.714;9.414;2023-04-20T10:29:44;99002.88;;;7.31;100.00
41264;BME280;26998;48.714;9.414;2023-04-20T10:32:21;98933.31;;;7.19;100.00
41264;BME280;26998;48.714;9.414;2023-04-20T10:35:02;98983.25;;;6.92;100.00
41264;BME280;26998;48.714;9.414;2023-04-20T10:37:29;99014.47;;;6.90;100.00
41264;BME280;26998;48.714;9.414;2023-04-20T10:39:56;99016.72;;;7.18;100.00
41264;BME280;26998;48.714;9.414;2023-04-20T10:42:22;98993.25;;;7.30;100.00
41264;BME280;26998;48.714;9.414;2023-04-20T10:44:50;98941.72;;;7.54;100.00
41264;BME280;26998;48.714;9.414;2023-04-20T10:47:26;98850.91;;;7.65;100.00
41264;BME280;26998;48.714;9.414;2023-04-20T10:49:52;98910.63;;;7.31;100.00
41264;BME280;26998;48.714;9.414;2023-04-20T10:52:31;98964.50;;;7.25;100.00
41264;BME280;26998;48.714;9.414;2023-04-20T10:54:58;98982.41;;;7.62;100.00
41264;BME280;26998;48.714;9.414;2023-04-20T10:57:25;98918.75;;;7.84;100.00
41264;BME280;26998;48.714;9.414;2023-04-20T10:59:51;98855.09;;;7.97;100.00
41264;BME280;26998;48.714;9.414;2023-04-20T11:02:18;98837.09;;;7.99;100.00
41264;BME280;26998;48.714;9.414;2023-04-20T11:04:44;98821.72;;;8.39;100.00
41264;BME280;26998;48.714;9.414;2023-04-20T11:07:12;98863.78;;;8.29;100.00
41264;BME280;26998;48.714;9.414;2023-04-20T11:09:39;98830.88;;;8.37;100.00
41264;BME280;26998;48.714;9.414;2023-04-20T11:12:08;98936.56;;;8.21;100.00
41264;BME280;26998;48.714;9.414;2023-04-20T11:14:48;98975.59;;;8.67;100.00
41264;BME280;26998;48.714;9.414;2023-04-20T11:17:15;98903.16;;;8.93;100.00
41264;BME280;26998;48.714;9.414;2023-04-20T11:19:42;98866.97;;;9.20;100.00
41264;BME280;26998;48.714;9.414;2023-04-20T11:22:20;98803.91;;;9.34;100.00
41264;BME280;26998;48.714;9.414;2023-04-20T11:24:46;98841.19;;;9.70;100.00
41264;BME280;26998;48.714;9.414;2023-04-20T11:27:20;98702.03;;;9.17;100.00
41264;BME280;26998;48.714;9.414;2023-04-20T11:29:57;98827.41;;;9.23;100.00
41264;BME280;26998;48.714;9.414;2023-04-20T11:32:26;98855.09;;;9.01;100.00
41264;BME280;26998;48.714;9.414;2023-04-20T11:35:10;98860.84;;;8.53;100.00
41264;BME280;26998;48.714;9.414;2023-04-20T11:37:49;98847.25;;;8.63;100.00
41264;BME280;26998;48.714;9.414;2023-04-20T11:40:17;98863.31;;;7.73;100.00
41264;BME280;26998;48.714;9.414;2023-04-20T11:42:43;98893.41;;;7.73;100.00
41264;BME280;26998;48.714;9.414;2023-04-20T11:45:10;98957.84;;;7.83;100.00
41264;BME280;26998;48.714;9.414;2023-04-20T11:47:37;98941.47;;;7.95;100.00
41264;BME280;26998;48.714;9.414;2023-04-20T11:50:04;98880.41;;;7.93;100.00
41264;BME280;26998;48.714;9.414;2023-04-20T11:52:31;98894.00;;;7.60;100.00
41264;BME280;26998;48.714;9.414;2023-04-20T11:54:57;98893.97;;;7.83;100.00
41264;BME280;26998;48.714;9.414;2023-04-20T11:57:24;98867.78;;;7.72;100.00
41264;BME280;26998;48.714;9.414;2023-04-20T11:59:51;98898.19;;;7.55;100.00
41264;BME280;26998;48.714;9.414;2023-04-20T12:02:17;98876.38;;;7.82;100.00
41264;BME280;26998;48.714;9.414;2023-04-20T12:04:44;98849.84;;;7.89;100.00
41264;BME280;26998;48.714;9.414;2023-04-20T12:07:10;98837.28;;;7.83;100.00
41264;BME280;26998;48.714;9.414;2023-04-20T12:09:37;98862.97;;;7.53;100.00
41264;BME280;26998;48.714;9.414;2023-04-20T12:12:04;98851.19;;;7.70;100.00
41264;BME280;26998;48.714;9.414;2023-04-20T12:14:31;98819.84;;;7.43;100.00
41264;BME280;26998;48.714;9.414;2023-04-20T12:16:59;98795.97;;;7.34;100.00
41264;BME280;26998;48.714;9.414;2023-04-20T12:19:25;98807.78;;;7.32;100.00
41264;BME280;26998;48.714;9.414;2023-04-20T12:21:52;98761.13;;;7.82;100.00
41264;BME280;26998;48.714;9.414;2023-04-20T12:24:18;98801.72;;;7.61;100.00
41264;BME280;26998;48.714;9.414;2023-04-20T12:26:45;98816.63;;;7.47;100.00
41264;BME280;26998;48.714;9.414;2023-04-20T12:29:11;98821.44;;;7.52;100.00
41264;BME280;26998;48.714;9.414;2023-04-20T12:31:38;98768.03;;;7.53;100.00
41264;BME280;26998;48.714;9.414;2023-04-20T12:34:04;98770.69;;;7.38;100.00
41264;BME280;26998;48.714;9.414;2023-04-20T12:36:31;98778.84;;;7.37;100.00
41264;BME280;26998;48.714;9.414;2023-04-20T12:38:58;98825.88;;;7.36;100.00
41264;BME280;26998;48.714;9.414;2023-04-20T12:41:26;98843.34;;;7.08;100.00
41264;BME280;26998;48.714;9.414;2023-04-20T12:43:54;98849.28;;;7.10;100.00
41264;BME280;26998;48.714;9.414;2023-04-20T12:46:21;98879.66;;;7.15;100.00
41264;BME280;26998;48.714;9.414;2023-04-20T12:48:48;98862.91;;;7.38;100.00
41264;BME280;26998;48.714;9.414;2023-04-20T12:51:15;98853.13;;;7.38;100.00
41264;BME280;26998;48.714;9.414;2023-04-20T12:53:41;98877.03;;;7.61;100.00
41264;BME280;26998;48.714;9.414;2023-04-20T12:56:08;98880.41;;;7.55;100.00
41264;BME280;26998;48.714;9.414;2023-04-20T12:58:35;98891.03;;;7.55;100.00
41264;BME280;26998;48.714;9.414;2023-04-20T13:01:02;98890.34;;;7.38;100.00
41264;BME280;26998;48.714;9.414;2023-04-20T13:03:28;98911.09;;;7.35;100.00